Vamdrup, Denmark
Current Conditions -  °F | °C
As of 6:50 AM on Thursday 23 Oct 2014 (Local Time) from EKSP Reporting Station
Light Fog Light Fog  
Wind Chill: 40°   Ceiling: Unl
Heat Index: 43°   Visibility: 0.18mi
Dew Point: 43°   Wind: 5mph
Humidity: 100%   Direction: 180°S
Pressure: 30.06"   Gusts: NA
Location:  55.43°N, 9.28°E
Report Text: EKSP 230450Z 18004KT 0300 R10/0650VP2000D R28/P2000N BCFGNSC 06/06 Q1018 TEMPO 3000 MIFG RMK FEW130
Loading
Personal Weather Stations






























Interactive Weather Map
Tropical Storm Tracking
New forecast layout! Learn more

10-Day Weather Forecast

Advertisements
Track Severe Weather on mobile